Time;durP1;ratioP1;P1;durP2;ratioP2;P2;SDS_P1;SDS_P2;PMS_P1;PMS_P2;Temp;Humidity;BMP_temperature;BMP_pressure;BME280_temperature;BME280_humidity;BME280_pressure;Samples;Min_cycle;Max_cycle;Signal;HPM_P1;HPM_P2
2022/12/31 00:00:29;;;;;;;1.80;1.30;;;;;;;10.78;100.00;96373.84;4972933;28;102345;-69
2022/12/31 00:02:56;;;;;;;1.30;1.20;;;;;;;10.86;100.00;96376.06;4974726;28;102244;-69
2022/12/31 00:05:23;;;;;;;1.60;1.50;;;;;;;10.74;100.00;96396.69;4955160;28;105622;-69
2022/12/31 00:07:50;;;;;;;3.43;2.10;;;;;;;10.84;100.00;96392.28;4971893;28;102906;-68
2022/12/31 00:10:19;;;;;;;7.53;4.80;;;;;;;10.79;100.00;96394.88;4972525;28;102184;-69
2022/12/31 00:12:46;;;;;;;1.63;1.33;;;;;;;10.80;100.00;96380.53;4954757;28;104087;-69
2022/12/31 00:15:13;;;;;;;1.00;1.00;;;;;;;10.70;100.00;96392.94;4972009;28;101725;-69
2022/12/31 00:17:40;;;;;;;5.27;3.53;;;;;;;10.75;100.00;96385.78;4954760;28;101877;-69
2022/12/31 00:20:08;;;;;;;3.90;3.17;;;;;;;10.75;100.00;96372.50;4972418;28;102891;-69
2022/12/31 00:22:35;;;;;;;1.30;1.20;;;;;;;10.67;100.00;96388.09;4974870;28;102727;-69
2022/12/31 00:25:02;;;;;;;3.07;2.70;;;;;;;10.62;100.00;96380.88;4954767;28;105225;-68
2022/12/31 00:27:32;;;;;;;1.30;1.20;;;;;;;10.59;100.00;96375.25;4953607;28;105425;-69
2022/12/31 00:29:59;;;;;;;1.20;1.10;;;;;;;10.52;100.00;96372.00;4954695;28;101941;-68
2022/12/31 00:32:26;;;;;;;0.90;0.90;;;;;;;10.68;100.00;96377.22;4954611;28;105495;-69
2022/12/31 00:34:53;;;;;;;1.03;0.97;;;;;;;10.89;100.00;96380.88;4953485;28;105723;-68
2022/12/31 00:37:19;;;;;;;2.40;1.80;;;;;;;11.09;100.00;96387.19;4954609;28;102055;-68
2022/12/31 00:39:46;;;;;;;0.90;0.90;;;;;;;11.26;100.00;96387.03;4954582;28;105196;-69
2022/12/31 00:42:13;;;;;;;1.17;1.07;;;;;;;11.30;100.00;96390.81;4971389;28;103278;-68
2022/12/31 00:44:42;;;;;;;0.93;0.93;;;;;;;11.32;100.00;96386.03;4975440;28;101833;-69
2022/12/31 00:47:09;;;;;;;0.87;0.87;;;;;;;11.34;100.00;96387.38;4971207;28;103035;-68
2022/12/31 00:49:36;;;;;;;0.93;0.93;;;;;;;11.38;100.00;96387.66;4971991;28;101918;-68
2022/12/31 00:52:03;;;;;;;1.13;1.03;;;;;;;11.27;100.00;96393.97;4954425;28;103610;-69
2022/12/31 00:54:30;;;;;;;0.90;0.90;;;;;;;11.26;100.00;96400.34;4971351;28;102651;-69
2022/12/31 00:56:57;;;;;;;1.60;1.50;;;;;;;11.31;100.00;96403.06;4954334;28;101881;-69
2022/12/31 00:59:24;;;;;;;1.03;0.93;;;;;;;11.42;100.00;96408.22;4953727;28;104774;-69
2022/12/31 01:01:53;;;;;;;2.27;1.07;;;;;;;11.37;100.00;96407.38;4971271;28;102652;-69
2022/12/31 01:04:21;;;;;;;4.10;1.30;;;;;;;11.32;100.00;96410.00;4971672;28;101851;-69
2022/12/31 01:06:48;;;;;;;0.83;0.83;;;;;;;11.43;100.00;96425.00;4956884;28;105248;-69
2022/12/31 01:09:16;;;;;;;0.80;0.80;;;;;;;11.37;100.00;96412.69;4971649;28;101964;-68
2022/12/31 01:11:43;;;;;;;1.10;1.00;;;;;;;11.33;100.00;96430.25;4953849;28;104922;-68
2022/12/31 01:14:12;;;;;;;0.93;0.93;;;;;;;11.38;100.00;96428.41;4953418;28;105801;-68
2022/12/31 01:16:42;;;;;;;0.80;0.80;;;;;;;11.46;100.00;96440.47;4971687;28;101923;-68
2022/12/31 01:19:13;;;;;;;1.17;1.07;;;;;;;11.46;100.00;96443.13;4971324;28;102354;-68
2022/12/31 01:21:41;;;;;;;0.90;0.90;;;;;;;11.47;100.00;96450.88;4971035;28;102704;-68
2022/12/31 01:24:11;;;;;;;1.37;0.80;;;;;;;11.63;100.00;96465.13;4953429;28;102684;-68
2022/12/31 01:26:38;;;;;;;0.80;0.80;;;;;;;11.74;100.00;96464.16;4971648;28;101702;-68
2022/12/31 01:29:06;;;;;;;0.80;0.80;;;;;;;11.80;100.00;96466.59;4973500;28;102536;-68
2022/12/31 01:31:34;;;;;;;0.80;0.80;;;;;;;11.80;100.00;96469.28;4953641;28;105304;-68
2022/12/31 01:34:01;;;;;;;0.73;0.73;;;;;;;11.77;100.00;96476.97;4953228;28;105290;-68
2022/12/31 01:36:31;;;;;;;1.27;0.80;;;;;;;11.83;100.00;96473.28;4971184;28;102142;-68
2022/12/31 01:39:00;;;;;;;0.90;0.90;;;;;;;11.92;100.00;96482.41;4953639;28;104798;-68
2022/12/31 01:41:29;;;;;;;0.73;0.73;;;;;;;12.04;100.00;96483.81;4970648;28;103052;-68
2022/12/31 01:43:59;;;;;;;0.80;0.80;;;;;;;12.07;100.00;96475.31;4953302;28;101921;-69
2022/12/31 01:46:33;;;;;;;0.57;0.57;;;;;;;12.01;100.00;96472.88;4970685;28;102521;-69
2022/12/31 01:49:04;;;;;;;0.70;0.70;;;;;;;12.02;100.00;96491.28;4970575;28;103197;-69
2022/12/31 01:51:35;;;;;;;0.80;0.80;;;;;;;11.96;100.00;96472.84;4956937;28;101775;-68
2022/12/31 01:54:05;;;;;;;1.00;0.90;;;;;;;11.88;100.00;96489.31;4970602;28;102577;-68
2022/12/31 01:56:33;;;;;;;0.80;0.80;;;;;;;11.95;100.00;96487.22;4953185;28;101801;-68
2022/12/31 01:59:00;;;;;;;0.80;0.80;;;;;;;11.92;100.00;96483.22;4953427;28;105671;-68
2022/12/31 02:01:31;;;;;;;0.60;0.60;;;;;;;11.87;100.00;96485.03;4970465;28;102613;-68
2022/12/31 02:03:59;;;;;;;0.77;0.77;;;;;;;11.93;100.00;96489.34;4971211;28;102180;-68
2022/12/31 02:06:33;;;;;;;0.70;0.70;;;;;;;11.92;100.00;96472.53;4952803;28;104017;-68
2022/12/31 02:09:01;;;;;;;0.87;0.87;;;;;;;11.95;100.00;96487.22;4970631;28;103045;-68
2022/12/31 02:11:31;;;;;;;0.60;0.60;;;;;;;11.89;100.00;96494.38;4974193;28;101813;-68
2022/12/31 02:14:02;;;;;;;0.70;0.70;;;;;;;11.93;100.00;96494.69;4952343;28;105917;-68
2022/12/31 02:16:38;;;;;;;0.80;0.80;;;;;;;11.90;100.00;96496.00;4953153;28;101806;-68
2022/12/31 02:19:21;;;;;;;0.80;0.80;;;;;;;11.88;100.00;96507.97;4953156;28;105616;-68
2022/12/31 02:21:57;;;;;;;0.80;0.80;;;;;;;11.83;100.00;96499.94;4952311;28;105752;-68
2022/12/31 02:25:05;;;;;;;0.77;0.73;;;;;;;11.87;100.00;96511.66;4970470;28;101848;-68
2022/12/31 02:27:45;;;;;;;0.70;0.70;;;;;;;11.82;100.00;96509.00;4952242;28;105244;-68
2022/12/31 02:30:17;;;;;;;0.80;0.80;;;;;;;11.81;100.00;96510.84;4952440;28;105498;-68
2022/12/31 02:32:55;;;;;;;1.07;0.77;;;;;;;11.78;100.00;96497.22;4952891;28;101984;-69
2022/12/31 02:35:27;;;;;;;0.93;0.90;;;;;;;11.71;100.00;96504.59;4973643;28;102359;-68
2022/12/31 02:37:59;;;;;;;0.80;0.80;;;;;;;11.70;100.00;96505.66;4970372;28;101725;-68
2022/12/31 02:40:26;;;;;;;0.70;0.70;;;;;;;11.71;100.00;96501.94;4952922;28;105628;-68
2022/12/31 02:42:54;;;;;;;1.20;0.83;;;;;;;11.74;100.00;96499.59;4952058;28;105796;-68
2022/12/31 02:45:28;;;;;;;1.00;1.00;;;;;;;11.71;100.00;96491.28;4952494;28;101785;-68
2022/12/31 02:48:09;;;;;;;0.77;0.77;;;;;;;11.79;100.00;96488.97;4970708;28;102633;-68
2022/12/31 02:50:54;;;;;;;0.70;0.70;;;;;;;11.80;100.00;96489.78;4969934;28;102541;-68
2022/12/31 02:53:30;;;;;;;0.83;0.83;;;;;;;11.82;100.00;96488.47;4970445;28;101745;-68
2022/12/31 02:56:04;;;;;;;1.00;0.60;;;;;;;11.75;100.00;96492.41;4970526;28;102373;-68
2022/12/31 03:06:51;;;;;;;0.60;0.60;;;;;;;11.66;100.00;96500.06;4954712;28;101937;-68
2022/12/31 03:09:18;;;;;;;1.03;0.73;;;;;;;11.62;100.00;96495.50;4955820;28;105937;-68
2022/12/31 03:14:30;;;;;;;0.60;0.60;;;;;;;11.63;100.00;96487.25;4973752;28;101757;-68
2022/12/31 03:16:58;;;;;;;0.80;0.80;;;;;;;11.59;100.00;96491.47;4973613;28;102414;-68
2022/12/31 03:22:30;;;;;;;0.80;0.80;;;;;;;11.69;100.00;96504.06;4962090;28;101954;-68
2022/12/31 03:27:45;;;;;;;0.50;0.50;;;;;;;11.62;100.00;96508.81;4972677;28;101812;-69
2022/12/31 03:30:14;;;;;;;0.60;0.60;;;;;;;11.58;100.00;96508.50;4973464;28;102427;-68
2022/12/31 03:32:44;;;;;;;0.60;0.60;;;;;;;11.62;100.00;96504.28;4954820;28;105984;-68
2022/12/31 03:35:13;;;;;;;0.53;0.53;;;;;;;11.64;100.00;96504.03;4955245;28;101896;-68
2022/12/31 03:37:41;;;;;;;0.60;0.60;;;;;;;11.69;100.00;96506.72;4972970;28;102288;-68
2022/12/31 03:40:11;;;;;;;1.03;0.70;;;;;;;11.90;100.00;96509.31;4954646;28;105853;-68
2022/12/31 03:42:38;;;;;;;0.70;0.70;;;;;;;11.82;100.00;96512.44;4973066;28;101793;-68
2022/12/31 03:45:06;;;;;;;0.60;0.60;;;;;;;12.03;100.00;96514.19;4958089;28;104861;-68
2022/12/31 03:47:33;;;;;;;0.60;0.60;;;;;;;12.20;100.00;96511.38;4955436;28;102067;-68
2022/12/31 03:50:01;;;;;;;0.50;0.50;;;;;;;12.22;100.00;96509.25;4955067;28;104846;-68
2022/12/31 03:52:28;;;;;;;0.80;0.50;;;;;;;12.24;100.00;96520.47;4954616;28;105134;-68
2022/12/31 03:54:54;;;;;;;0.57;0.57;;;;;;;12.20;100.00;96522.03;4955037;28;101831;-68
2022/12/31 03:57:21;;;;;;;0.57;0.53;;;;;;;12.22;100.00;96535.94;4955201;28;105027;-68
2022/12/31 03:59:48;;;;;;;0.50;0.50;;;;;;;12.24;100.00;96528.47;4954913;28;105794;-68
2022/12/31 04:02:15;;;;;;;0.70;0.70;;;;;;;12.24;100.00;96529.28;4955002;28;101967;-68
2022/12/31 04:04:42;;;;;;;0.60;0.60;;;;;;;12.21;100.00;96539.66;4954888;28;105098;-68
2022/12/31 04:07:10;;;;;;;0.47;0.47;;;;;;;12.17;100.00;96539.38;4957715;28;105841;-68
2022/12/31 04:09:37;;;;;;;0.60;0.60;;;;;;;12.07;100.00;96533.16;4954183;28;105225;-69
2022/12/31 04:12:05;;;;;;;0.77;0.77;;;;;;;12.19;100.00;96536.44;4954340;28;104099;-69
2022/12/31 04:14:32;;;;;;;0.53;0.53;;;;;;;12.43;100.00;96551.00;4972786;28;101768;-68
2022/12/31 04:16:59;;;;;;;0.50;0.50;;;;;;;12.44;100.00;96536.59;4938521;28;106718;-68
2022/12/31 04:19:26;;;;;;;0.60;0.60;;;;;;;12.46;100.00;96553.94;4971884;28;102643;-68
2022/12/31 04:21:53;;;;;;;0.57;0.57;;;;;;;12.44;100.00;96552.59;4972336;28;101882;-69
2022/12/31 04:24:21;;;;;;;0.70;0.70;;;;;;;12.57;100.00;96552.94;4954690;28;104781;-68
2022/12/31 04:26:48;;;;;;;0.60;0.60;;;;;;;12.60;100.00;96548.97;4957594;28;105515;-68
2022/12/31 04:29:15;;;;;;;0.63;0.63;;;;;;;12.54;100.00;96547.34;4950933;28;104852;-68
2022/12/31 04:31:42;;;;;;;0.83;0.60;;;;;;;12.52;100.00;96538.75;4952044;28;103029;-68
2022/12/31 04:34:09;;;;;;;1.47;0.67;;;;;;;12.47;100.00;96541.41;4952801;28;101834;-68
2022/12/31 04:36:36;;;;;;;0.50;0.50;;;;;;;12.50;100.00;96546.22;4951327;28;105173;-68
2022/12/31 04:39:03;;;;;;;0.60;0.60;;;;;;;12.50;100.00;96554.22;4951150;28;104208;-68
2022/12/31 04:41:32;;;;;;;0.60;0.60;;;;;;;12.38;100.00;96545.63;4951368;28;102182;-68
2022/12/31 04:43:59;;;;;;;0.70;0.70;;;;;;;12.24;100.00;96549.78;4951262;28;104803;-68
2022/12/31 04:46:29;;;;;;;0.60;0.60;;;;;;;12.13;100.00;96550.78;4950711;28;104112;-68
2022/12/31 04:48:56;;;;;;;0.60;0.60;;;;;;;12.06;100.00;96564.34;4956154;28;101941;-68
2022/12/31 04:51:23;;;;;;;0.60;0.60;;;;;;;12.11;100.00;96582.22;4952273;28;103033;-68
2022/12/31 04:53:52;;;;;;;0.70;0.70;;;;;;;12.06;100.00;96558.19;4951407;28;102113;-68
2022/12/31 04:56:19;;;;;;;0.60;0.60;;;;;;;12.09;100.00;96569.16;4952655;28;102913;-68
2022/12/31 04:58:47;;;;;;;0.60;0.60;;;;;;;12.12;100.00;96573.16;4951967;28;102830;-68
2022/12/31 05:01:15;;;;;;;0.67;0.67;;;;;;;12.07;100.00;96576.63;4951143;28;102037;-68
2022/12/31 05:03:42;;;;;;;0.60;0.60;;;;;;;12.01;100.00;96584.81;4950940;28;105337;-68
2022/12/31 05:06:12;;;;;;;1.07;0.67;;;;;;;12.07;100.00;96594.47;4951918;28;102745;-68
2022/12/31 05:08:39;;;;;;;0.87;0.70;;;;;;;12.15;100.00;96602.00;4951235;28;102088;-68
2022/12/31 05:11:06;;;;;;;0.67;0.67;;;;;;;12.07;100.00;96605.13;4955321;28;102844;-68
2022/12/31 05:13:33;;;;;;;0.67;0.67;;;;;;;12.00;100.00;96618.66;4950812;28;102434;-68
2022/12/31 05:16:01;;;;;;;0.80;0.70;;;;;;;12.12;100.00;96615.81;4952637;28;102327;-68
2022/12/31 05:18:29;;;;;;;0.60;0.60;;;;;;;12.15;100.00;96610.78;4951812;28;102588;-68
2022/12/31 05:20:56;;;;;;;0.53;0.53;;;;;;;12.29;100.00;96616.50;4949748;28;101987;-68
2022/12/31 05:23:24;;;;;;;0.60;0.60;;;;;;;12.34;100.00;96603.19;4950793;28;104930;-68
2022/12/31 05:25:51;;;;;;;0.87;0.70;;;;;;;12.53;100.00;96613.19;4952188;28;102618;-68
2022/12/31 05:28:18;;;;;;;0.60;0.60;;;;;;;12.51;100.00;96611.84;4958732;28;101699;-68
2022/12/31 05:30:48;;;;;;;0.70;0.60;;;;;;;12.49;100.00;96595.31;4953844;28;105547;-68
2022/12/31 05:33:18;;;;;;;0.80;0.60;;;;;;;12.42;100.00;96589.41;4974520;28;102620;-68
2022/12/31 05:35:45;;;;;;;0.73;0.70;;;;;;;12.32;100.00;96586.66;4971784;28;102904;-68
2022/12/31 05:38:12;;;;;;;0.60;0.60;;;;;;;12.20;100.00;96594.00;4953323;28;105339;-68
2022/12/31 05:40:39;;;;;;;0.77;0.77;;;;;;;12.14;100.00;96593.19;4953773;28;101993;-68
2022/12/31 05:43:06;;;;;;;0.70;0.70;;;;;;;12.11;100.00;96587.56;4953954;28;105023;-68
2022/12/31 05:45:33;;;;;;;1.13;0.80;;;;;;;12.10;100.00;96585.97;4970942;28;103191;-68
2022/12/31 05:48:00;;;;;;;0.90;0.90;;;;;;;12.07;100.00;96591.78;4971416;28;101837;-68
2022/12/31 05:50:28;;;;;;;0.70;0.70;;;;;;;12.06;100.00;96606.19;4953470;28;105530;-68
2022/12/31 05:52:56;;;;;;;0.70;0.70;;;;;;;12.04;100.00;96606.44;4970500;28;102770;-68
2022/12/31 05:55:24;;;;;;;0.77;0.70;;;;;;;11.92;100.00;96605.78;4957003;28;102099;-68
2022/12/31 05:57:51;;;;;;;0.87;0.70;;;;;;;11.81;100.00;96608.59;4952680;28;104716;-68
2022/12/31 06:00:18;;;;;;;0.70;0.70;;;;;;;11.75;100.00;96609.63;4953395;28;101902;-68
2022/12/31 06:02:45;;;;;;;0.63;0.63;;;;;;;11.71;100.00;96603.19;4971195;28;102359;-68
2022/12/31 06:05:12;;;;;;;0.80;0.80;;;;;;;11.68;100.00;96617.84;4952660;28;105293;-68
2022/12/31 06:07:40;;;;;;;1.50;1.40;;;;;;;11.67;100.00;96607.41;4971029;28;101844;-68
2022/12/31 06:10:08;;;;;;;2.03;1.30;;;;;;;11.66;100.00;96606.59;4971019;28;102470;-68
2022/12/31 06:12:35;;;;;;;1.10;1.10;;;;;;;11.71;100.00;96608.50;4952859;28;105838;-68
2022/12/31 06:15:02;;;;;;;0.80;0.80;;;;;;;11.70;100.00;96601.56;4970930;28;101678;-68
2022/12/31 06:17:31;;;;;;;0.80;0.80;;;;;;;11.65;100.00;96593.53;4974042;28;102302;-68
2022/12/31 06:19:59;;;;;;;0.93;0.90;;;;;;;11.59;100.00;96602.53;4970988;28;101997;-69
2022/12/31 06:22:26;;;;;;;1.10;0.70;;;;;;;11.54;100.00;96589.94;4970677;28;102851;-68
2022/12/31 06:24:54;;;;;;;0.70;0.70;;;;;;;11.42;100.00;96593.81;4970449;28;102631;-68
2022/12/31 06:27:22;;;;;;;0.70;0.70;;;;;;;11.43;100.00;96598.06;4971172;28;102343;-68
2022/12/31 06:29:49;;;;;;;0.73;0.73;;;;;;;11.48;100.00;96598.13;4970540;28;102508;-68
2022/12/31 06:32:17;;;;;;;0.67;0.60;;;;;;;11.39;100.00;96584.44;4952089;28;105966;-68
2022/12/31 06:34:44;;;;;;;0.70;0.70;;;;;;;11.41;100.00;96592.19;4952785;28;101880;-68
2022/12/31 06:37:11;;;;;;;1.60;1.50;;;;;;;11.41;100.00;96589.53;4955845;28;105686;-68
2022/12/31 06:39:37;;;;;;;3.47;3.10;;;;;;;11.34;100.00;96591.59;4970708;28;102360;-68
2022/12/31 06:42:06;;;;;;;4.40;4.10;;;;;;;11.41;100.00;96597.53;4952982;28;105229;-68
2022/12/31 06:44:33;;;;;;;1.27;1.27;;;;;;;11.48;100.00;96587.47;4969999;28;102513;-68
2022/12/31 06:47:00;;;;;;;1.40;1.30;;;;;;;11.65;100.00;96596.19;4952827;28;101870;-68
2022/12/31 06:49:27;;;;;;;1.30;1.20;;;;;;;11.65;100.00;96602.34;4970257;28;102306;-68
2022/12/31 06:51:54;;;;;;;1.10;1.10;;;;;;;11.64;100.00;96592.75;4951861;28;105697;-68
2022/12/31 06:54:21;;;;;;;1.20;1.20;;;;;;;11.63;100.00;96591.13;4970508;28;102145;-68
2022/12/31 06:56:48;;;;;;;0.73;0.73;;;;;;;11.61;100.00;96600.44;4952370;28;105576;-68
2022/12/31 06:59:25;;;;;;;1.73;1.20;;;;;;;11.60;100.00;96606.78;4955588;28;106379;-68
2022/12/31 07:02:05;;;;;;;1.37;1.37;;;;;;;11.61;100.00;96616.41;4970612;28;102585;-68
2022/12/31 07:04:50;;;;;;;1.00;1.00;;;;;;;11.60;100.00;96623.59;4951958;28;105886;-67
2022/12/31 07:07:24;;;;;;;0.90;0.90;;;;;;;11.62;100.00;96626.00;4970328;28;101878;-68
2022/12/31 07:09:58;;;;;;;3.67;3.30;;;;;;;11.68;100.00;96627.66;4970272;28;102344;-68
2022/12/31 07:12:38;;;;;;;2.50;2.30;;;;;;;11.77;100.00;96634.16;4969926;28;102542;-68
2022/12/31 07:15:14;;;;;;;2.90;2.60;;;;;;;11.82;100.00;96647.53;4952432;28;102062;-68
2022/12/31 07:17:53;;;;;;;2.00;1.90;;;;;;;11.95;100.00;96642.59;4952240;28;105167;-68
2022/12/31 07:20:21;;;;;;;2.67;2.47;;;;;;;11.88;100.00;96651.88;4969396;28;102619;-68
2022/12/31 07:22:49;;;;;;;2.00;1.80;;;;;;;11.90;100.00;96665.72;4955442;28;101873;-68
2022/12/31 07:25:17;;;;;;;4.53;3.83;;;;;;;11.99;100.00;96659.69;4969010;28;103639;-68
2022/12/31 07:28:01;;;;;;;3.87;2.93;;;;;;;11.97;100.00;96655.66;4951595;28;102389;-68
2022/12/31 07:30:39;;;;;;;1.37;0.70;;;;;;;12.03;100.00;96646.66;4952271;28;103482;-68
2022/12/31 07:33:28;;;;;;;1.03;1.00;;;;;;;12.03;100.00;96652.81;4969157;28;102740;-68
2022/12/31 07:36:07;;;;;;;2.03;1.63;;;;;;;12.03;100.00;96665.31;4951836;28;101970;-68
2022/12/31 07:38:41;;;;;;;1.17;0.90;;;;;;;12.04;100.00;96661.63;4969999;28;102517;-68
2022/12/31 07:41:17;;;;;;;0.67;0.53;;;;;;;12.13;100.00;96666.22;4951111;28;105553;-68
2022/12/31 07:43:59;;;;;;;0.80;0.80;;;;;;;12.07;100.00;96675.25;4970130;28;101701;-68
2022/12/31 07:46:34;;;;;;;1.63;0.80;;;;;;;12.03;100.00;96675.97;4975680;28;102697;-68
2022/12/31 07:49:04;;;;;;;0.60;0.60;;;;;;;12.00;100.00;96673.81;4955235;28;101926;-68
2022/12/31 07:51:31;;;;;;;0.73;0.73;;;;;;;12.05;100.00;96680.00;4954712;28;103594;-68
2022/12/31 07:53:59;;;;;;;0.60;0.60;;;;;;;11.98;100.00;96681.25;4954689;28;104956;-68
2022/12/31 07:56:26;;;;;;;0.80;0.80;;;;;;;12.00;100.00;96685.28;4973031;28;102168;-68
2022/12/31 07:59:02;;;;;;;1.33;0.80;;;;;;;12.07;100.00;96687.75;4955277;28;105631;-68
2022/12/31 08:01:39;;;;;;;0.60;0.60;;;;;;;12.16;100.00;96696.91;4972110;28;102755;-68
2022/12/31 08:04:15;;;;;;;7.97;5.10;;;;;;;12.18;100.00;96702.78;4972782;28;101999;-68
2022/12/31 08:06:50;;;;;;;3.57;3.27;;;;;;;12.19;100.00;96693.72;4954907;28;105019;-68
2022/12/31 08:09:29;;;;;;;1.40;1.30;;;;;;;12.26;100.00;96694.34;4975470;28;102529;-68
2022/12/31 08:11:58;;;;;;;1.00;1.00;;;;;;;12.28;100.00;96689.56;4972672;28;102478;-68
2022/12/31 08:14:26;;;;;;;2.10;0.90;;;;;;;12.30;100.00;96698.09;4954304;28;105476;-68
2022/12/31 08:16:55;;;;;;;0.83;0.83;;;;;;;12.31;100.00;96694.41;4954742;28;101928;-68
2022/12/31 08:19:26;;;;;;;0.90;0.90;;;;;;;12.38;100.00;96694.97;4972508;28;102336;-68
2022/12/31 08:22:06;;;;;;;0.60;0.60;;;;;;;12.47;100.00;96706.78;4953873;28;105821;-68
2022/12/31 08:24:43;;;;;;;0.70;0.70;;;;;;;12.43;100.00;96709.16;4954649;28;101809;-68
2022/12/31 08:27:20;;;;;;;0.60;0.60;;;;;;;12.42;100.00;96712.09;4972300;28;102945;-68
2022/12/31 08:29:56;;;;;;;0.73;0.73;;;;;;;12.55;100.00;96709.00;4971370;28;102691;-68
2022/12/31 08:32:31;;;;;;;1.10;1.10;;;;;;;12.55;100.00;96712.47;4958202;28;101776;-68
2022/12/31 08:35:06;;;;;;;0.93;0.93;;;;;;;12.59;100.00;96707.44;4954019;28;105309;-68
2022/12/31 08:37:37;;;;;;;3.17;2.77;;;;;;;12.65;100.00;96706.41;4972129;28;101788;-68
2022/12/31 08:40:16;;;;;;;1.50;0.97;;;;;;;12.64;100.00;96705.59;4972196;28;102583;-69
2022/12/31 08:43:01;;;;;;;1.57;1.00;;;;;;;12.57;100.00;96701.53;4971648;28;102901;-70
2022/12/31 08:45:32;;;;;;;7.93;6.97;;;;;;;12.62;100.00;96712.25;4971854;28;101681;-70
2022/12/31 08:48:05;;;;;;;3.93;3.30;;;;;;;12.69;100.00;96704.81;4971988;28;102854;-67
2022/12/31 08:50:33;;;;;;;1.40;1.30;;;;;;;12.87;100.00;96697.22;4953904;28;103956;-68
2022/12/31 08:53:01;;;;;;;2.30;1.77;;;;;;;12.92;100.00;96694.56;4957440;28;101925;-68
2022/12/31 08:55:30;;;;;;;0.80;0.80;;;;;;;12.95;100.00;96703.94;4953401;28;106095;-68
2022/12/31 08:58:13;;;;;;;0.80;0.80;;;;;;;12.95;100.00;96699.41;4953944;28;101943;-68
2022/12/31 09:00:41;;;;;;;0.83;0.83;;;;;;;12.99;100.00;96695.22;4954061;28;105964;-68
2022/12/31 09:03:40;;;;;;;1.83;1.73;;;;;;;13.08;100.00;96701.66;4953374;28;106582;-69
2022/12/31 09:06:16;;;;;;;2.93;1.30;;;;;;;13.16;100.00;96698.50;4953557;28;101843;-69
2022/12/31 09:08:53;;;;;;;1.53;1.40;;;;;;;13.18;100.00;96701.72;4971568;28;102775;-71
2022/12/31 09:11:28;;;;;;;2.20;1.13;;;;;;;13.21;100.00;96695.06;4953335;28;105996;-71
2022/12/31 09:14:21;;;;;;;1.37;0.90;;;;;;;13.21;100.00;96698.53;4953663;28;101948;-71
2022/12/31 09:16:56;;;;;;;1.73;1.57;;;;;;;13.22;100.00;96707.34;4956418;28;105134;-72
2022/12/31 09:19:25;;;;;;;1.00;1.00;;;;;;;13.28;100.00;96704.44;4953684;28;101946;-72
2022/12/31 09:21:53;;;;;;;1.23;1.10;;;;;;;13.45;100.00;96714.94;4953508;28;104571;-72
2022/12/31 09:24:20;;;;;;;0.70;0.70;;;;;;;13.54;100.00;96713.38;4952914;28;105795;-72
2022/12/31 09:26:57;;;;;;;3.20;2.60;;;;;;;13.55;100.00;96713.13;4953300;28;101975;-72
2022/12/31 09:29:36;;;;;;;3.00;2.70;;;;;;;13.55;100.00;96706.97;4952860;28;105254;-72
2022/12/31 09:32:19;;;;;;;1.80;1.63;;;;;;;13.65;100.00;96707.00;4952458;28;105879;-72
2022/12/31 09:34:56;;;;;;;1.13;1.00;;;;;;;13.72;100.00;96691.53;4953507;28;102060;-72
2022/12/31 09:37:36;;;;;;;0.60;0.60;;;;;;;13.81;100.00;96704.16;4953420;28;105577;-72
2022/12/31 09:40:23;;;;;;;0.97;0.70;;;;;;;14.04;100.00;96700.19;4955850;28;105493;-72
2022/12/31 09:43:08;;;;;;;1.17;0.60;;;;;;;14.06;99.86;96698.06;4953179;28;105390;-72
2022/12/31 09:46:13;;;;;;;0.83;0.83;;;;;;;14.15;99.74;96691.91;4970539;28;102581;-72
2022/12/31 09:49:15;;;;;;;1.00;1.00;;;;;;;14.23;99.32;96688.75;4953140;28;101922;-72
2022/12/31 09:52:09;;;;;;;1.03;1.03;;;;;;;14.26;99.33;96692.75;4946910;28;102864;-72
2022/12/31 09:54:53;;;;;;;1.77;1.27;;;;;;;14.26;100.00;96698.13;4952628;28;105651;-72
2022/12/31 09:57:39;;;;;;;1.30;1.20;;;;;;;14.26;100.00;96695.44;4970847;28;101925;-72
2022/12/31 10:00:15;;;;;;;1.23;0.80;;;;;;;14.25;100.00;96691.97;4953269;28;105222;-72
2022/12/31 10:03:07;;;;;;;0.93;0.93;;;;;;;14.34;99.64;96689.56;4952449;28;105576;-72
2022/12/31 10:05:58;;;;;;;1.53;0.60;;;;;;;14.41;96.67;96684.75;4956428;28;102043;-72
2022/12/31 10:08:41;;;;;;;0.70;0.70;;;;;;;14.49;96.32;96682.34;4951755;28;105554;-72
2022/12/31 10:11:18;;;;;;;1.10;1.00;;;;;;;14.53;95.36;96678.06;4953210;28;101878;-72
2022/12/31 10:14:08;;;;;;;1.40;1.00;;;;;;;14.54;94.12;96679.69;4970909;28;102562;-72
2022/12/31 10:16:57;;;;;;;1.23;0.90;;;;;;;14.59;94.61;96686.88;4968338;28;104197;-72
2022/12/31 10:19:43;;;;;;;1.10;1.00;;;;;;;14.61;94.86;96680.19;4952816;28;102017;-72
2022/12/31 10:22:32;;;;;;;1.13;0.87;;;;;;;14.71;93.18;96679.41;4970687;28;102667;-72
2022/12/31 10:25:19;;;;;;;0.87;0.87;;;;;;;14.75;91.32;96681.28;4952092;28;105440;-72
2022/12/31 10:27:53;;;;;;;0.73;0.70;;;;;;;14.94;90.10;96679.63;4951960;28;101910;-72
2022/12/31 10:30:23;;;;;;;0.80;0.80;;;;;;;14.86;87.03;96674.03;4955481;28;105184;-71
2022/12/31 10:33:00;;;;;;;1.13;0.60;;;;;;;14.80;87.83;96677.78;4952758;28;101842;-72
2022/12/31 10:35:39;;;;;;;0.60;0.60;;;;;;;15.06;89.04;96674.81;4968979;28;104125;-72
2022/12/31 10:38:22;;;;;;;0.70;0.70;;;;;;;15.42;85.54;96680.91;4969930;28;102851;-72
2022/12/31 10:41:28;;;;;;;1.83;1.50;;;;;;;15.67;81.33;96678.09;4952873;28;101918;-72
2022/12/31 10:44:32;;;;;;;1.20;1.10;;;;;;;15.85;74.52;96675.59;4952470;28;104871;-72
2022/12/31 10:47:26;;;;;;;0.80;0.70;;;;;;;15.91;73.12;96668.34;4951567;28;105149;-72
2022/12/31 10:50:16;;;;;;;0.70;0.70;;;;;;;16.26;76.92;96668.13;4940441;28;102031;-68
2022/12/31 10:53:06;;;;;;;0.77;0.77;;;;;;;16.32;71.38;96658.94;4952756;28;104533;-62
2022/12/31 10:56:08;;;;;;;1.10;1.10;;;;;;;16.43;70.06;96649.78;4971464;28;101919;-67
2022/12/31 10:58:55;;;;;;;0.80;0.80;;;;;;;16.56;67.40;96652.63;4968464;28;105845;-64
2022/12/31 11:01:33;;;;;;;0.97;0.80;;;;;;;16.69;67.33;96648.50;4969847;28;103112;-55
2022/12/31 11:04:42;;;;;;;3.07;1.50;;;;;;;16.66;63.16;96657.09;4952430;28;102226;-61
2022/12/31 11:07:42;;;;;;;1.50;1.40;;;;;;;16.66;63.98;96649.84;4935656;28;105168;-70
2022/12/31 11:10:43;;;;;;;2.93;2.63;;;;;;;16.88;62.75;96642.13;4950808;28;104164;-64
2022/12/31 11:13:47;;;;;;;0.90;0.90;;;;;;;17.04;58.00;96640.88;4952300;28;101789;-62
2022/12/31 11:16:33;;;;;;;0.87;0.87;;;;;;;17.15;58.63;96642.38;4969718;28;102296;-77
2022/12/31 11:19:07;;;;;;;1.07;0.63;;;;;;;17.16;56.64;96646.66;4973680;28;103090;-64
2022/12/31 11:21:46;;;;;;;1.43;0.97;;;;;;;17.20;56.84;96645.00;4955574;28;105341;-65
2022/12/31 11:27:23;;;;;;;0.80;0.80;;;;;;;17.14;56.41;96643.47;4955520;28;101802;-67
2022/12/31 11:30:03;;;;;;;0.60;0.60;;;;;;;17.18;55.39;96646.38;4952413;28;104836;-70
2022/12/31 11:32:49;;;;;;;0.80;0.63;;;;;;;17.45;53.66;96641.28;4951817;28;105413;-65
2022/12/31 11:35:23;;;;;;;0.53;0.53;;;;;;;17.35;53.61;96636.78;4952483;28;101879;-67
2022/12/31 11:37:52;;;;;;;0.63;0.63;;;;;;;17.15;54.50;96638.88;4954279;28;102364;-67
2022/12/31 11:40:29;;;;;;;1.10;1.00;;;;;;;17.12;56.51;96628.72;4951419;28;105766;-67
2022/12/31 11:43:00;;;;;;;0.70;0.70;;;;;;;17.14;56.96;96631.91;4955747;28;101844;-67
2022/12/31 11:45:49;;;;;;;1.67;1.10;;;;;;;17.11;57.66;96629.81;4951584;28;105372;-67
2022/12/31 11:48:23;;;;;;;1.10;1.00;;;;;;;16.97;55.91;96623.50;4952245;28;101749;-67
2022/12/31 11:51:01;;;;;;;0.80;0.80;;;;;;;16.76;58.84;96624.78;4952083;28;105249;-67
2022/12/31 11:53:56;;;;;;;0.73;0.70;;;;;;;16.66;61.37;96611.44;4951503;28;105120;-67
2022/12/31 11:56:27;;;;;;;0.70;0.70;;;;;;;16.69;62.64;96613.56;4937572;28;102125;-67
2022/12/31 11:58:56;;;;;;;0.80;0.80;;;;;;;16.68;62.95;96610.06;4953547;28;102945;-67
2022/12/31 12:01:28;;;;;;;1.70;0.80;;;;;;;16.59;64.73;96608.28;4952434;28;102544;-67
2022/12/31 12:03:56;;;;;;;0.97;0.87;;;;;;;16.53;66.44;96604.88;4953444;28;101661;-67
2022/12/31 12:06:27;;;;;;;0.60;0.60;;;;;;;16.37;65.44;96607.91;4955930;28;103013;-67